createdAt,value
2019-06-07T00:01:16.462Z,17.97
2019-06-07T00:03:45.948Z,19.40
2019-06-07T00:06:21.431Z,17.83
2019-06-07T00:08:46.198Z,18.63
2019-06-07T00:11:18.623Z,18.57
2019-06-07T00:13:46.385Z,19.03
2019-06-07T00:16:19.883Z,18.40
2019-06-07T00:18:46.591Z,18.30
2019-06-07T00:21:17.789Z,19.03
2019-06-07T00:23:46.787Z,18.07
2019-06-07T00:26:19.139Z,18.17
2019-06-07T00:28:47.035Z,18.33
2019-06-07T00:31:18.208Z,20.27
2019-06-07T00:33:47.630Z,18.53
2019-06-07T00:36:18.258Z,18.13
2019-06-07T00:38:48.046Z,17.97
2019-06-07T00:41:20.218Z,19.60
2019-06-07T00:43:48.210Z,18.30
2019-06-07T00:46:18.825Z,17.90
2019-06-07T00:48:48.567Z,17.90
2019-06-07T00:51:19.593Z,17.87
2019-06-07T00:53:48.767Z,18.30
2019-06-07T00:56:20.302Z,19.83
2019-06-07T00:59:09.868Z,19.43
2019-06-07T01:01:22.693Z,17.57
2019-06-07T01:03:51.157Z,19.70
2019-06-07T01:06:22.967Z,18.90
2019-06-07T01:08:51.498Z,20.33
2019-06-07T01:11:23.491Z,19.27
2019-06-07T01:13:52.079Z,19.40
2019-06-07T01:16:23.676Z,19.17
2019-06-07T01:18:52.612Z,19.53
2019-06-07T01:21:24.847Z,18.57
2019-06-07T01:24:10.682Z,19.00
2019-06-07T01:26:26.803Z,19.60
2019-06-07T01:28:55.244Z,19.20
2019-06-07T01:31:27.816Z,19.10
2019-06-07T01:33:55.745Z,20.23
2019-06-07T01:36:29.072Z,20.57
2019-06-07T01:38:55.917Z,19.57
2019-06-07T01:41:27.847Z,19.87
2019-06-07T01:43:56.068Z,19.37
2019-06-07T01:46:26.791Z,20.80
2019-06-07T01:48:56.276Z,19.30
2019-06-07T01:51:27.911Z,21.20
2019-06-07T01:54:41.007Z,20.83
2019-06-07T01:56:29.648Z,22.83
2019-06-07T01:58:58.565Z,21.17
2019-06-07T02:01:34.737Z,22.40
2019-06-07T02:03:58.848Z,20.80
2019-06-07T02:06:32.062Z,19.70
2019-06-07T02:08:59.040Z,21.23
2019-06-07T02:11:29.404Z,20.47
2019-06-07T02:13:59.333Z,23.53
2019-06-07T02:16:31.958Z,19.77
2019-06-07T02:19:01.951Z,20.10
2019-06-07T02:21:34.077Z,22.97
2019-06-07T02:24:01.560Z,21.30
2019-06-07T02:26:32.525Z,20.20
2019-06-07T02:29:02.005Z,19.67
2019-06-07T02:31:38.685Z,20.23
2019-06-07T02:34:02.469Z,20.50
2019-06-07T02:36:39.238Z,20.97
2019-06-07T02:39:02.785Z,19.90
2019-06-07T02:41:38.571Z,19.83
2019-06-07T02:44:03.191Z,19.90
2019-06-07T02:46:44.825Z,19.67
2019-06-07T02:49:03.563Z,18.93
2019-06-07T02:51:40.712Z,20.17
2019-06-07T02:54:03.763Z,19.20
2019-06-07T02:56:44.009Z,18.63
2019-06-07T02:59:04.301Z,19.10
2019-06-07T03:01:39.442Z,18.80
2019-06-07T03:04:05.788Z,20.03
2019-06-07T03:06:39.554Z,17.47
2019-06-07T03:09:09.463Z,17.93
2019-06-07T03:11:42.086Z,17.87
2019-06-07T03:14:12.941Z,17.80
2019-06-07T03:16:50.251Z,17.67
2019-06-07T03:19:26.703Z,16.43
2019-06-07T03:21:55.985Z,17.53
2019-06-07T03:24:29.592Z,17.47
2019-06-07T03:29:29.982Z,18.03
2019-06-07T03:31:59.750Z,17.87
2019-06-07T03:34:32.648Z,17.13
2019-06-07T03:37:00.021Z,18.03
2019-06-07T03:39:29.632Z,16.83
2019-06-07T03:42:06.142Z,18.83
2019-06-07T03:44:33.920Z,17.70
2019-06-07T03:47:02.360Z,18.70
2019-06-07T03:49:37.552Z,18.17
2019-06-07T03:52:02.613Z,18.60
2019-06-07T03:54:32.139Z,16.97
2019-06-07T03:57:02.772Z,17.53
2019-06-07T03:59:37.413Z,17.00
2019-06-07T04:02:03.208Z,16.90
2019-06-07T04:04:34.662Z,19.03
2019-06-07T04:07:03.725Z,18.73
2019-06-07T04:09:38.958Z,17.73
2019-06-07T04:12:06.001Z,17.30
2019-06-07T04:14:37.701Z,17.60
2019-06-07T04:17:06.497Z,16.57
2019-06-07T04:19:42.034Z,18.57
2019-06-07T04:22:08.387Z,16.97
2019-06-07T04:24:40.156Z,17.50
2019-06-07T04:27:08.512Z,16.00
2019-06-07T04:30:04.828Z,16.30
2019-06-07T04:32:09.315Z,17.27
2019-06-07T04:34:42.900Z,17.10
2019-06-07T04:37:10.601Z,16.73
2019-06-07T04:39:45.087Z,16.93
2019-06-07T04:42:13.453Z,17.97
2019-06-07T04:44:43.073Z,17.03
2019-06-07T04:47:14.846Z,18.00
2019-06-07T04:49:47.030Z,16.90
2019-06-07T04:52:16.264Z,15.85
2019-06-07T04:54:46.025Z,15.63
2019-06-07T04:57:15.559Z,16.03
2019-06-07T05:02:16.171Z,15.28
2019-06-07T05:04:45.432Z,15.80
2019-06-07T05:07:14.756Z,14.90
2019-06-07T05:09:44.023Z,14.50
2019-06-07T05:12:13.273Z,16.75
2019-06-07T05:14:44.273Z,15.78
2019-06-07T05:17:13.469Z,13.05
2019-06-07T05:19:44.782Z,16.02
2019-06-07T05:22:14.375Z,14.10
2019-06-07T05:24:43.881Z,11.90
2019-06-07T05:27:13.445Z,11.83
2019-06-07T05:29:45.930Z,12.33
2019-06-07T05:32:14.941Z,11.43
2019-06-07T05:34:47.403Z,10.98
2019-06-07T05:37:15.151Z,13.80
2019-06-07T05:39:46.487Z,36.50
2019-06-07T05:42:15.783Z,12.43
2019-06-07T05:44:45.892Z,13.10
2019-06-07T05:47:15.290Z,19.15
2019-06-07T05:49:47.139Z,10.90
2019-06-07T05:52:16.750Z,12.40
2019-06-07T05:54:47.096Z,15.20
2019-06-07T05:57:16.582Z,13.32
2019-06-07T05:59:47.437Z,11.97
2019-06-07T06:02:22.577Z,19.23
2019-06-07T06:04:49.215Z,11.60
2019-06-07T06:07:18.957Z,13.55
2019-06-07T06:09:48.156Z,12.88
2019-06-07T06:12:33.860Z,10.38
2019-06-07T06:14:48.394Z,13.35
2019-06-07T06:17:17.595Z,13.18
2019-06-07T06:19:50.432Z,11.30
2019-06-07T06:22:17.402Z,10.28
2019-06-07T06:25:17.143Z,17.40
2019-06-07T06:27:55.613Z,23.27
2019-06-07T06:29:50.411Z,11.00
2019-06-07T06:34:53.898Z,18.32
2019-06-07T06:37:22.077Z,12.58
2019-06-07T06:39:51.256Z,13.38
2019-06-07T06:42:20.488Z,14.33
2019-06-07T06:44:54.027Z,13.38
2019-06-07T06:47:20.959Z,12.88
2019-06-07T06:49:54.248Z,10.18
2019-06-07T06:52:21.149Z,11.05
2019-06-07T06:54:59.727Z,14.68
2019-06-07T06:57:21.329Z,12.33
2019-06-07T06:59:52.710Z,14.47
2019-06-07T07:02:21.785Z,8.85
2019-06-07T07:04:53.483Z,9.15
2019-06-07T07:07:22.056Z,11.93
2019-06-07T07:09:57.486Z,7.80
2019-06-07T07:12:22.401Z,14.35
2019-06-07T07:14:52.972Z,9.98
2019-06-07T07:17:46.676Z,6.37
2019-06-07T07:19:55.651Z,8.08
2019-06-07T07:22:24.490Z,7.87
2019-06-07T07:24:54.979Z,8.40
2019-06-07T07:27:24.301Z,9.33
2019-06-07T07:30:22.770Z,11.18
2019-06-07T07:32:24.532Z,8.68
2019-06-07T07:35:00.012Z,10.93
2019-06-07T07:37:24.967Z,9.80
2019-06-07T07:40:01.412Z,6.90
2019-06-07T07:42:25.162Z,7.70
2019-06-07T07:44:56.517Z,8.70
2019-06-07T07:47:25.504Z,10.78
2019-06-07T07:49:58.554Z,8.85
2019-06-07T07:52:26.224Z,7.50
2019-06-07T07:54:56.684Z,6.97
2019-06-07T07:57:26.374Z,6.12
2019-06-07T08:00:17.584Z,6.55
2019-06-07T08:02:27.558Z,7.55
2019-06-07T08:07:28.245Z,10.93
2019-06-07T08:10:01.009Z,13.68
2019-06-07T08:12:28.699Z,10.72
2019-06-07T08:15:02.413Z,7.42
2019-06-07T08:17:28.827Z,8.58
2019-06-07T08:20:02.576Z,8.63
2019-06-07T08:22:29.033Z,8.20
2019-06-07T08:25:02.360Z,10.00
2019-06-07T08:27:29.318Z,9.40
2019-06-07T08:30:15.624Z,9.45
2019-06-07T08:32:29.712Z,8.40
2019-06-07T08:35:05.631Z,7.33
2019-06-07T08:38:13.380Z,6.80
2019-06-07T08:40:01.905Z,9.33
2019-06-07T08:42:37.286Z,7.05
2019-06-07T08:45:05.501Z,8.83
2019-06-07T08:47:33.466Z,10.70
2019-06-07T08:50:07.878Z,6.60
2019-06-07T08:52:34.768Z,5.62
2019-06-07T08:55:05.221Z,5.87
2019-06-07T08:57:34.794Z,6.22
2019-06-07T09:00:27.479Z,8.98
2019-06-07T09:02:35.950Z,7.92
2019-06-07T09:05:12.036Z,6.20
2019-06-07T09:07:37.594Z,8.35
2019-06-07T09:10:12.796Z,7.28
2019-06-07T09:12:38.728Z,7.17
2019-06-07T09:15:20.528Z,8.58
2019-06-07T09:18:29.633Z,8.98
2019-06-07T09:20:35.279Z,6.25
2019-06-07T09:22:42.449Z,6.37
2019-06-07T09:25:20.651Z,11.83
2019-06-07T09:27:43.165Z,6.33
2019-06-07T09:30:18.692Z,8.45
2019-06-07T09:32:44.157Z,7.08
2019-06-07T09:35:17.485Z,8.95
2019-06-07T09:40:27.097Z,6.40
2019-06-07T09:43:38.207Z,8.78
2019-06-07T09:45:20.830Z,13.48
2019-06-07T09:47:50.103Z,8.78
2019-06-07T09:50:19.534Z,8.03
2019-06-07T09:52:58.628Z,9.70
2019-06-07T09:55:24.709Z,8.63
2019-06-07T09:57:50.726Z,9.73
2019-06-07T10:00:39.963Z,10.80
2019-06-07T10:02:51.770Z,5.28
2019-06-07T10:05:21.581Z,6.10
2019-06-07T10:08:02.327Z,8.28
2019-06-07T10:12:52.850Z,5.37
2019-06-07T10:15:22.096Z,5.22
2019-06-07T10:17:51.370Z,4.55
2019-06-07T10:20:20.685Z,9.73
2019-06-07T10:22:49.956Z,4.72
2019-06-07T10:25:19.286Z,6.45
2019-06-07T10:27:48.558Z,8.98
2019-06-07T10:30:17.762Z,10.78
2019-06-07T10:32:46.995Z,8.63
2019-06-07T10:35:16.686Z,5.53
2019-06-07T10:37:46.285Z,7.12
2019-06-07T10:40:17.246Z,4.60
2019-06-07T10:42:46.478Z,7.17
2019-06-07T10:45:16.605Z,5.65
2019-06-07T10:47:45.879Z,5.42
2019-06-07T10:50:16.089Z,6.08
2019-06-07T10:52:45.419Z,11.22
2019-06-07T10:55:15.056Z,6.42
2019-06-07T10:57:45.487Z,8.85
2019-06-07T11:00:15.692Z,9.05
2019-06-07T11:02:44.971Z,6.62
2019-06-07T11:05:14.805Z,8.90
2019-06-07T11:07:44.015Z,5.85
2019-06-07T11:10:19.479Z,7.90
2019-06-07T11:12:45.422Z,6.90
2019-06-07T11:15:15.052Z,6.90
2019-06-07T11:17:44.619Z,5.90
2019-06-07T11:20:15.674Z,7.60
2019-06-07T11:22:44.971Z,8.95
2019-06-07T11:25:14.930Z,6.62
2019-06-07T11:27:44.113Z,8.60
2019-06-07T11:30:14.534Z,6.28
2019-06-07T11:32:44.074Z,6.92
2019-06-07T11:35:15.407Z,8.83
2019-06-07T11:37:45.002Z,7.65
2019-06-07T11:40:30.822Z,9.63
2019-06-07T11:42:45.786Z,8.23
2019-06-07T11:45:15.547Z,8.53
2019-06-07T11:47:45.131Z,6.83
2019-06-07T11:50:15.804Z,8.65
2019-06-07T11:52:46.582Z,6.60
2019-06-07T11:55:16.792Z,5.90
2019-06-07T11:57:46.018Z,6.72
2019-06-07T12:00:18.595Z,8.23
2019-06-07T12:02:48.418Z,6.87
2019-06-07T12:05:20.301Z,6.30
2019-06-07T12:07:49.598Z,9.18
2019-06-07T12:10:22.826Z,7.10
2019-06-07T12:12:50.352Z,8.10
2019-06-07T12:15:20.045Z,9.90
2019-06-07T12:17:49.319Z,15.68
2019-06-07T12:20:21.113Z,7.67
2019-06-07T12:22:51.335Z,8.60
2019-06-07T12:25:24.828Z,7.22
2019-06-07T12:27:51.621Z,11.43
2019-06-07T12:30:27.327Z,8.60
2019-06-07T12:32:52.078Z,9.78
2019-06-07T12:35:21.901Z,7.83
2019-06-07T12:37:51.445Z,6.37
2019-06-07T12:40:30.149Z,10.50
2019-06-07T12:42:51.814Z,10.43
2019-06-07T12:45:40.106Z,8.65
2019-06-07T12:47:52.126Z,6.62
2019-06-07T12:50:21.743Z,9.78
2019-06-07T12:52:51.640Z,8.88
2019-06-07T12:55:22.701Z,9.73
2019-06-07T12:57:52.173Z,8.83
2019-06-07T13:00:22.341Z,6.25
2019-06-07T13:02:51.766Z,7.53
2019-06-07T13:05:21.746Z,6.83
2019-06-07T13:07:51.056Z,6.30
2019-06-07T13:10:21.951Z,7.22
2019-06-07T13:12:51.631Z,6.15
2019-06-07T13:15:23.824Z,6.72
2019-06-07T13:17:51.933Z,10.85
2019-06-07T13:20:22.711Z,8.33
2019-06-07T13:22:52.392Z,7.20
2019-06-07T13:25:23.924Z,7.67
2019-06-07T13:27:52.878Z,7.85
2019-06-07T13:30:23.431Z,6.80
2019-06-07T13:32:54.136Z,9.88
2019-06-07T13:35:23.790Z,6.72
2019-06-07T13:37:53.877Z,6.50
2019-06-07T13:40:25.105Z,6.92
2019-06-07T13:42:54.082Z,8.55
2019-06-07T13:45:24.311Z,11.38
2019-06-07T13:47:53.542Z,8.48
2019-06-07T13:50:24.050Z,9.85
2019-06-07T13:52:53.490Z,8.85
2019-06-07T13:55:23.949Z,10.90
2019-06-07T13:57:53.410Z,7.83
2019-06-07T14:00:23.121Z,12.70
2019-06-07T14:02:53.677Z,9.30
2019-06-07T14:05:23.177Z,8.88
2019-06-07T14:07:52.394Z,6.78
2019-06-07T14:10:21.785Z,5.95
2019-06-07T14:12:51.122Z,7.35
2019-06-07T14:15:20.669Z,8.05
2019-06-07T14:17:51.087Z,9.70
2019-06-07T14:20:25.835Z,12.13
2019-06-07T14:22:54.402Z,6.08
2019-06-07T14:25:25.143Z,7.58
2019-06-07T14:27:54.349Z,7.47
2019-06-07T14:30:24.025Z,6.60
2019-06-07T14:32:53.521Z,10.70
2019-06-07T14:35:22.778Z,8.98
2019-06-07T14:37:52.239Z,6.78
2019-06-07T14:40:23.251Z,11.95
2019-06-07T14:42:52.490Z,6.12
2019-06-07T14:45:21.850Z,7.47
2019-06-07T14:47:51.096Z,8.70
2019-06-07T14:50:20.339Z,6.50
2019-06-07T14:52:49.571Z,10.35
2019-06-07T14:55:18.832Z,9.30
2019-06-07T14:57:48.061Z,6.95
2019-06-07T15:00:19.225Z,6.95
2019-06-07T15:02:48.559Z,6.95
2019-06-07T15:05:19.321Z,11.97
2019-06-07T15:07:48.889Z,6.12
2019-06-07T15:10:19.185Z,7.97
2019-06-07T15:12:48.417Z,6.00
2019-06-07T15:15:18.090Z,7.50
2019-06-07T15:17:47.373Z,8.25
2019-06-07T15:20:16.576Z,6.20
2019-06-07T15:22:45.786Z,8.08
2019-06-07T15:25:15.046Z,7.00
2019-06-07T15:27:44.276Z,8.63
2019-06-07T15:30:13.854Z,7.60
2019-06-07T15:32:43.468Z,11.40
2019-06-07T15:35:12.873Z,8.78
2019-06-07T15:37:42.082Z,8.83
2019-06-07T15:40:18.002Z,8.08
2019-06-07T15:42:52.911Z,7.90
2019-06-07T15:45:19.774Z,10.80
2019-06-07T15:47:49.023Z,8.23
2019-06-07T15:50:18.436Z,11.53
2019-06-07T15:52:47.675Z,8.80
2019-06-07T15:55:17.310Z,8.65
2019-06-07T15:57:46.571Z,9.00
2019-06-07T16:00:17.823Z,9.45
2019-06-07T16:02:47.187Z,10.35
2019-06-07T16:05:18.251Z,10.18
2019-06-07T16:07:47.487Z,7.62
2019-06-07T16:10:17.542Z,7.35
2019-06-07T16:12:59.781Z,8.55
2019-06-07T16:15:20.083Z,7.75
2019-06-07T16:17:49.285Z,7.85
2019-06-07T16:20:18.570Z,7.65
2019-06-07T16:22:47.961Z,8.58
2019-06-07T16:25:17.868Z,9.15
2019-06-07T16:27:47.083Z,9.25
2019-06-07T16:30:17.866Z,8.18
2019-06-07T16:32:47.199Z,15.20
2019-06-07T16:35:17.014Z,12.03
2019-06-07T16:37:51.563Z,18.90
2019-06-07T16:40:20.239Z,7.85
2019-06-07T16:42:50.657Z,8.58
2019-06-07T16:45:20.179Z,8.08
2019-06-07T16:47:49.860Z,7.53
2019-06-07T16:50:19.393Z,13.58
2019-06-07T16:52:48.876Z,8.50
2019-06-07T16:55:18.389Z,9.65
2019-06-07T16:57:47.586Z,10.50
2019-06-07T17:00:18.715Z,11.78
2019-06-07T17:02:48.864Z,8.75
2019-06-07T17:05:18.602Z,7.35
2019-06-07T17:07:48.930Z,11.22
2019-06-07T17:10:19.296Z,8.98
2019-06-07T17:12:48.948Z,9.78
2019-06-07T17:15:19.741Z,9.80
2019-06-07T17:17:49.353Z,10.32
2019-06-07T17:20:19.509Z,12.20
2019-06-07T17:22:49.794Z,10.90
2019-06-07T17:25:19.607Z,11.55
2019-06-07T17:27:50.222Z,13.68
2019-06-07T17:30:19.726Z,12.93
2019-06-07T17:32:57.636Z,9.80
2019-06-07T17:35:20.003Z,12.65
2019-06-07T17:37:50.171Z,13.22
2019-06-07T17:40:20.295Z,11.10
2019-06-07T17:42:49.529Z,10.82
2019-06-07T17:45:19.382Z,11.57
2019-06-07T17:47:49.827Z,11.53
2019-06-07T17:50:19.325Z,12.70
2019-06-07T17:52:50.054Z,12.15
2019-06-07T17:55:19.460Z,9.80
2019-06-07T17:57:49.025Z,10.15
2019-06-07T18:00:34.844Z,9.75
2019-06-07T18:02:50.965Z,13.83
2019-06-07T18:05:20.304Z,12.95
2019-06-07T18:07:53.758Z,10.68
2019-06-07T18:10:36.498Z,13.45
2019-06-07T18:13:06.224Z,13.62
2019-06-07T18:15:41.172Z,13.65
2019-06-07T18:18:10.655Z,16.70
2019-06-07T18:20:40.576Z,11.97
2019-06-07T18:23:10.248Z,12.33
2019-06-07T18:25:39.493Z,10.95
2019-06-07T18:28:08.772Z,11.38
2019-06-07T18:30:38.872Z,10.68
2019-06-07T18:33:08.186Z,11.22
2019-06-07T18:35:37.406Z,12.20
2019-06-07T18:38:10.585Z,11.48
2019-06-07T18:40:38.154Z,12.65
2019-06-07T18:43:07.375Z,13.93
2019-06-07T18:45:36.935Z,12.73
2019-06-07T18:48:06.349Z,12.68
2019-06-07T18:50:36.082Z,14.00
2019-06-07T18:53:07.143Z,12.03
2019-06-07T18:55:36.471Z,17.35
2019-06-07T18:58:09.142Z,12.00
2019-06-07T19:00:38.516Z,12.85
2019-06-07T19:03:07.761Z,17.95
2019-06-07T19:05:36.971Z,16.02
2019-06-07T19:08:06.510Z,14.63
2019-06-07T19:10:36.128Z,14.78
2019-06-07T19:13:05.582Z,15.55
2019-06-07T19:15:35.041Z,13.22
2019-06-07T19:18:04.357Z,16.35
2019-06-07T19:20:33.660Z,13.88
2019-06-07T19:23:02.949Z,12.45
2019-06-07T19:25:32.167Z,12.05
2019-06-07T19:28:01.390Z,11.95
2019-06-07T19:30:30.680Z,12.25
2019-06-07T19:33:01.402Z,15.50
2019-06-07T19:35:31.028Z,15.00
2019-06-07T19:38:00.558Z,12.82
2019-06-07T19:40:29.812Z,12.50
2019-06-07T19:43:00.452Z,16.02
2019-06-07T19:45:31.527Z,13.85
2019-06-07T19:48:01.134Z,14.60
2019-06-07T19:50:30.387Z,13.83
2019-06-07T19:52:59.648Z,17.50
2019-06-07T19:55:28.882Z,15.23
2019-06-07T19:57:59.563Z,16.60
2019-06-07T20:00:29.039Z,14.58
2019-06-07T20:02:58.323Z,13.83
2019-06-07T20:05:27.531Z,14.38
2019-06-07T20:07:56.820Z,14.68
2019-06-07T20:10:26.052Z,14.58
2019-06-07T20:12:56.548Z,14.45
2019-06-07T20:15:29.060Z,14.75
2019-06-07T20:17:57.176Z,15.60
2019-06-07T20:20:29.886Z,15.93
2019-06-07T20:22:59.032Z,15.30
2019-06-07T20:25:28.353Z,15.32
2019-06-07T20:27:59.628Z,15.30
2019-06-07T20:30:28.940Z,14.38
2019-06-07T20:32:59.684Z,14.75
2019-06-07T20:35:29.180Z,18.17
2019-06-07T20:37:58.959Z,15.88
2019-06-07T20:40:28.243Z,16.90
2019-06-07T20:42:57.714Z,16.10
2019-06-07T20:45:33.569Z,16.02
2019-06-07T20:47:58.253Z,18.82
2019-06-07T20:50:27.680Z,15.00
2019-06-07T20:52:59.382Z,16.50
2019-06-07T20:55:27.884Z,16.70
2019-06-07T20:57:57.111Z,17.00
2019-06-07T21:00:26.371Z,15.10
2019-06-07T21:02:55.589Z,15.00
2019-06-07T21:05:24.807Z,15.50
2019-06-07T21:07:54.069Z,15.45
2019-06-07T21:10:23.681Z,16.42
2019-06-07T21:12:52.904Z,17.42
2019-06-07T21:15:22.244Z,16.55
2019-06-07T21:17:51.889Z,16.93
2019-06-07T21:20:21.107Z,16.97
2019-06-07T21:22:50.380Z,16.80
2019-06-07T21:25:19.600Z,16.60
2019-06-07T21:27:48.834Z,15.88
2019-06-07T21:30:18.106Z,18.12
2019-06-07T21:32:48.328Z,16.57
2019-06-07T21:35:17.584Z,17.75
2019-06-07T21:37:46.840Z,16.23
2019-06-07T21:40:16.363Z,18.20
2019-06-07T21:42:45.598Z,17.35
2019-06-07T21:45:16.569Z,16.12
2019-06-07T21:47:45.777Z,16.82
2019-06-07T21:50:15.116Z,17.35
2019-06-07T21:52:44.553Z,19.37
2019-06-07T21:55:14.484Z,17.25
2019-06-07T21:57:43.731Z,15.10
2019-06-07T22:00:17.616Z,18.77
2019-06-07T22:02:46.835Z,16.87
2019-06-07T22:05:16.153Z,16.50
2019-06-07T22:07:45.420Z,16.97
2019-06-07T22:10:14.947Z,16.50
2019-06-07T22:12:44.155Z,17.62
2019-06-07T22:15:32.028Z,15.50
2019-06-07T22:17:44.575Z,16.30
2019-06-07T22:20:14.758Z,15.60
2019-06-07T22:22:44.334Z,15.10
2019-06-07T22:25:13.564Z,15.15
2019-06-07T22:27:42.772Z,14.97
2019-06-07T22:30:12.655Z,16.35
2019-06-07T22:32:41.828Z,17.80
2019-06-07T22:35:11.108Z,17.12
2019-06-07T22:37:40.373Z,15.70
2019-06-07T22:40:10.701Z,17.82
2019-06-07T22:42:40.007Z,15.70
2019-06-07T22:45:10.902Z,15.90
2019-06-07T22:47:40.350Z,17.35
2019-06-07T22:50:10.919Z,16.82
2019-06-07T22:52:40.641Z,20.50
2019-06-07T22:55:12.100Z,19.90
2019-06-07T22:57:56.862Z,15.33
2019-06-07T23:00:27.651Z,16.75
2019-06-07T23:02:57.066Z,19.80
2019-06-07T23:05:26.323Z,16.10
2019-06-07T23:07:55.822Z,17.17
2019-06-07T23:10:25.083Z,16.57
2019-06-07T23:12:54.369Z,16.60
2019-06-07T23:15:23.671Z,16.73
2019-06-07T23:17:52.911Z,17.35
2019-06-07T23:20:23.217Z,17.12
2019-06-07T23:22:52.445Z,18.23
2019-06-07T23:25:24.346Z,17.23
2019-06-07T23:27:52.639Z,18.37
2019-06-07T23:30:22.870Z,17.83
2019-06-07T23:32:52.102Z,17.10
2019-06-07T23:35:21.373Z,18.13
2019-06-07T23:37:50.671Z,16.93
2019-06-07T23:40:21.423Z,17.37
2019-06-07T23:42:51.010Z,18.07
2019-06-07T23:45:21.739Z,16.83
2019-06-07T23:47:51.085Z,17.37
2019-06-07T23:50:21.780Z,16.83
2019-06-07T23:52:51.507Z,17.40
2019-06-07T23:55:22.335Z,17.83
2019-06-07T23:57:51.865Z,17.10
